Terminal Aerodrome Forecast
Issued by NWS Norman, OK

Home | Current Version | Previous Version | Text Only | Print | Product List | Glossary On
Versions: 1 2 3 4 5 6 7 8 9 10 11 12 13 14 15
000
FTUS44 KOUN 010538
TAFSPS
TAF
KSPS 010538Z 0106/0206 10009KT P6SM SCT010 BKN025
     FM010900 10006KT P6SM VCTS BKN010CB BKN100
     FM011500 07008KT P6SM SCT015 BKN050 BKN250 PROB30 0116/0122 5SM
      -TSRA BKN030CB
     FM012200 08007KT P6SM BKN030 BKN150
      TEMPO 0122/0202 2SM TSRA OVC020CB=

USA.gov is the U.S. government's official web portal to all federal, state and local government web resources and services.